Time;durP1;ratioP1;P1;durP2;ratioP2;P2;SDS_P1;SDS_P2;PMS_P1;PMS_P2;Temp;Humidity;BMP_temperature;BMP_pressure;BME280_temperature;BME280_humidity;BME280_pressure;Samples;Min_cycle;Max_cycle;Signal;HPM_P1;HPM_P2
2021/11/22 00:01:17;;;;;;;2.19;1.85;;;;;;;19.55;53.41;100269.05;;;;-58
2021/11/22 00:04:17;;;;;;;2.98;1.93;;;;;;;19.53;53.46;100266.95;;;;-54
2021/11/22 00:07:17;;;;;;;2.43;1.99;;;;;;;19.51;53.44;100269.38;;;;-54
2021/11/22 00:10:17;;;;;;;2.10;1.90;;;;;;;19.50;53.43;100272.21;;;;-57
2021/11/22 00:13:17;;;;;;;1.96;1.85;;;;;;;19.49;53.46;100276.53;;;;-58
2021/11/22 00:16:17;;;;;;;2.05;1.81;;;;;;;19.46;53.48;100278.37;;;;-54
2021/11/22 00:19:17;;;;;;;1.93;1.81;;;;;;;19.45;53.46;100277.73;;;;-58
2021/11/22 00:22:17;;;;;;;2.12;1.92;;;;;;;19.44;53.45;100280.09;;;;-57
2021/11/22 00:25:17;;;;;;;2.16;1.96;;;;;;;19.42;53.48;100283.23;;;;-56
2021/11/22 00:28:17;;;;;;;2.14;1.94;;;;;;;19.42;53.50;100290.30;;;;-54
2021/11/22 00:31:17;;;;;;;2.29;1.91;;;;;;;19.40;53.47;100287.20;;;;-57
2021/11/22 00:34:17;;;;;;;1.90;1.80;;;;;;;19.37;53.53;100289.07;;;;-57
2021/11/22 00:37:20;;;;;;;2.16;1.96;;;;;;;19.36;53.50;100295.83;;;;-57
2021/11/22 00:40:17;;;;;;;1.99;1.80;;;;;;;19.35;53.49;100295.48;;;;-54
2021/11/22 00:43:17;;;;;;;2.09;1.91;;;;;;;19.34;53.53;100299.56;;;;-55
2021/11/22 00:46:17;;;;;;;2.13;1.93;;;;;;;19.33;53.55;100303.11;;;;-58
2021/11/22 00:49:17;;;;;;;2.31;1.98;;;;;;;19.31;53.50;100305.14;;;;-59
2021/11/22 00:52:17;;;;;;;1.82;1.71;;;;;;;19.29;53.53;100308.21;;;;-58
2021/11/22 00:55:17;;;;;;;2.52;1.90;;;;;;;19.28;53.53;100309.44;;;;-58
2021/11/22 00:58:17;;;;;;;1.86;1.76;;;;;;;19.27;53.60;100306.83;;;;-54
2021/11/22 01:01:17;;;;;;;1.91;1.74;;;;;;;19.26;53.56;100314.63;;;;-58
2021/11/22 01:04:17;;;;;;;1.87;1.75;;;;;;;19.24;53.65;100316.56;;;;-59
2021/11/22 01:07:17;;;;;;;1.80;1.70;;;;;;;19.24;53.67;100314.63;;;;-57
2021/11/22 01:10:17;;;;;;;1.82;1.72;;;;;;;19.22;53.66;100316.97;;;;-52
2021/11/22 01:13:17;;;;;;;1.90;1.80;;;;;;;19.21;53.68;100322.80;;;;-53
2021/11/22 01:16:17;;;;;;;2.01;1.88;;;;;;;19.20;53.65;100326.46;;;;-54
2021/11/22 01:19:18;;;;;;;2.01;1.90;;;;;;;19.19;53.62;100328.55;;;;-58
2021/11/22 01:22:17;;;;;;;1.91;1.80;;;;;;;19.17;53.67;100329.78;;;;-57
2021/11/22 01:25:17;;;;;;;1.87;1.75;;;;;;;19.16;53.65;100325.78;;;;-54
2021/11/22 01:28:17;;;;;;;1.80;1.70;;;;;;;19.15;53.69;100327.88;;;;-55
2021/11/22 01:31:17;;;;;;;1.95;1.85;;;;;;;19.14;53.70;100331.63;;;;-57
2021/11/22 01:34:17;;;;;;;1.93;1.80;;;;;;;19.12;53.72;100334.77;;;;-56
2021/11/22 01:37:19;;;;;;;1.93;1.77;;;;;;;19.12;53.68;100337.86;;;;-54
2021/11/22 01:40:17;;;;;;;2.07;1.87;;;;;;;19.10;53.76;100339.15;;;;-58
2021/11/22 01:43:17;;;;;;;1.89;1.74;;;;;;;19.10;53.76;100341.58;;;;-53
2021/11/22 01:46:17;;;;;;;1.90;1.80;;;;;;;19.09;53.74;100343.05;;;;-54
2021/11/22 01:49:17;;;;;;;1.89;1.79;;;;;;;19.08;53.83;100343.03;;;;-54
2021/11/22 01:52:17;;;;;;;1.93;1.81;;;;;;;19.07;53.79;100348.38;;;;-58
2021/11/22 01:55:17;;;;;;;1.90;1.74;;;;;;;19.05;53.72;100347.50;;;;-58
2021/11/22 01:58:17;;;;;;;1.96;1.86;;;;;;;19.06;53.73;100347.41;;;;-57
2021/11/22 02:01:17;;;;;;;1.83;1.73;;;;;;;19.04;53.88;100348.21;;;;-54
2021/11/22 02:04:17;;;;;;;1.83;1.73;;;;;;;19.02;53.82;100347.95;;;;-54
2021/11/22 02:07:17;;;;;;;1.90;1.80;;;;;;;19.01;53.83;100350.06;;;;-54
2021/11/22 02:10:17;;;;;;;1.85;1.75;;;;;;;19.01;53.84;100352.72;;;;-54
2021/11/22 02:13:17;;;;;;;1.95;1.79;;;;;;;19.00;53.80;100355.01;;;;-58
2021/11/22 02:16:17;;;;;;;2.20;2.00;;;;;;;18.99;53.77;100364.91;;;;-56
2021/11/22 02:19:17;;;;;;;1.81;1.71;;;;;;;18.97;53.85;100362.55;;;;-57
2021/11/22 02:22:17;;;;;;;2.48;1.89;;;;;;;18.97;53.85;100371.73;;;;-57
2021/11/22 02:25:17;;;;;;;2.11;1.91;;;;;;;18.95;53.80;100370.81;;;;-52
2021/11/22 02:28:17;;;;;;;1.93;1.83;;;;;;;18.94;53.87;100372.50;;;;-52
2021/11/22 02:31:17;;;;;;;1.80;1.70;;;;;;;18.93;53.77;100375.27;;;;-58
2021/11/22 02:34:17;;;;;;;1.87;1.77;;;;;;;18.93;53.84;100374.78;;;;-57
2021/11/22 02:37:17;;;;;;;1.86;1.76;;;;;;;18.91;53.81;100373.95;;;;-57
2021/11/22 02:40:17;;;;;;;1.99;1.80;;;;;;;18.90;53.87;100372.22;;;;-52
2021/11/22 02:43:17;;;;;;;1.77;1.67;;;;;;;18.89;53.90;100374.50;;;;-54
2021/11/22 02:46:17;;;;;;;1.91;1.80;;;;;;;18.87;53.91;100372.53;;;;-52
2021/11/22 02:49:17;;;;;;;1.84;1.74;;;;;;;18.87;53.89;100377.41;;;;-52
2021/11/22 02:52:17;;;;;;;1.85;1.75;;;;;;;18.86;53.85;100370.65;;;;-54
2021/11/22 02:55:17;;;;;;;1.98;1.81;;;;;;;18.86;53.96;100378.28;;;;-53
2021/11/22 02:58:17;;;;;;;1.79;1.69;;;;;;;18.84;53.90;100381.34;;;;-54
2021/11/22 03:01:17;;;;;;;1.88;1.78;;;;;;;18.84;53.90;100382.92;;;;-54
2021/11/22 03:04:17;;;;;;;1.97;1.79;;;;;;;18.82;53.90;100385.07;;;;-54
2021/11/22 03:07:17;;;;;;;1.77;1.67;;;;;;;18.83;53.96;100388.34;;;;-54
2021/11/22 03:10:17;;;;;;;2.01;1.81;;;;;;;18.82;53.90;100384.26;;;;-52
2021/11/22 03:13:17;;;;;;;1.98;1.81;;;;;;;18.81;53.90;100386.70;;;;-57
2021/11/22 03:16:17;;;;;;;2.18;1.75;;;;;;;18.81;53.93;100391.49;;;;-57
2021/11/22 03:19:17;;;;;;;1.89;1.70;;;;;;;18.79;53.91;100395.05;;;;-58
2021/11/22 03:22:17;;;;;;;1.77;1.67;;;;;;;18.79;53.95;100400.32;;;;-58
2021/11/22 03:25:18;;;;;;;2.62;1.80;;;;;;;18.77;53.85;100394.09;;;;-57
2021/11/22 03:28:19;;;;;;;1.83;1.70;;;;;;;18.76;53.87;100397.35;;;;-58
2021/11/22 03:31:17;;;;;;;2.02;1.89;;;;;;;18.75;53.94;100397.91;;;;-54
2021/11/22 03:34:17;;;;;;;1.96;1.76;;;;;;;18.74;53.96;100398.47;;;;-57
2021/11/22 03:37:17;;;;;;;1.79;1.69;;;;;;;18.73;53.88;100398.94;;;;-52
2021/11/22 03:40:17;;;;;;;1.74;1.64;;;;;;;18.72;53.94;100397.32;;;;-57
2021/11/22 03:43:25;;;;;;;2.11;1.91;;;;;;;18.72;53.99;100400.81;;;;-57
2021/11/22 03:46:17;;;;;;;1.90;1.80;;;;;;;18.71;54.01;100400.70;;;;-56
2021/11/22 03:49:17;;;;;;;2.05;1.86;;;;;;;18.71;53.99;100401.11;;;;-56
2021/11/22 03:52:17;;;;;;;1.90;1.80;;;;;;;18.70;53.96;100405.09;;;;-57
2021/11/22 03:55:17;;;;;;;2.01;1.81;;;;;;;18.69;54.03;100407.19;;;;-56
2021/11/22 03:58:17;;;;;;;2.20;1.87;;;;;;;18.67;54.02;100406.84;;;;-56
2021/11/22 04:01:17;;;;;;;2.19;1.99;;;;;;;18.66;54.01;100411.80;;;;-53
2021/11/22 04:04:17;;;;;;;2.06;1.89;;;;;;;18.66;53.99;100418.78;;;;-57
2021/11/22 04:07:17;;;;;;;1.99;1.80;;;;;;;18.66;53.99;100425.59;;;;-58
2021/11/22 04:10:17;;;;;;;1.81;1.71;;;;;;;18.65;53.99;100427.52;;;;-52
2021/11/22 04:13:17;;;;;;;1.80;1.70;;;;;;;18.64;53.96;100427.36;;;;-56
2021/11/22 04:16:17;;;;;;;2.06;1.93;;;;;;;18.64;54.04;100428.74;;;;-52
2021/11/22 04:19:17;;;;;;;1.87;1.77;;;;;;;18.63;54.02;100434.31;;;;-57
2021/11/22 04:22:17;;;;;;;2.07;1.92;;;;;;;18.62;54.09;100436.11;;;;-55
2021/11/22 04:25:17;;;;;;;1.90;1.80;;;;;;;18.62;54.06;100443.58;;;;-56
2021/11/22 04:28:17;;;;;;;2.07;1.88;;;;;;;18.60;54.08;100446.97;;;;-56
2021/11/22 04:31:17;;;;;;;1.80;1.70;;;;;;;18.60;54.03;100452.48;;;;-56
2021/11/22 04:34:17;;;;;;;1.83;1.73;;;;;;;18.58;54.06;100455.46;;;;-55
2021/11/22 04:37:17;;;;;;;1.85;1.72;;;;;;;18.58;54.02;100459.93;;;;-55
2021/11/22 04:40:17;;;;;;;2.00;1.86;;;;;;;18.57;54.11;100466.83;;;;-57
2021/11/22 04:43:17;;;;;;;1.99;1.80;;;;;;;18.57;54.10;100469.75;;;;-57
2021/11/22 04:46:17;;;;;;;1.92;1.80;;;;;;;18.58;54.11;100472.59;;;;-55
2021/11/22 04:49:17;;;;;;;2.10;1.90;;;;;;;18.57;54.05;100473.38;;;;-52
2021/11/22 04:52:17;;;;;;;1.93;1.77;;;;;;;18.56;54.08;100472.73;;;;-57
2021/11/22 04:55:17;;;;;;;2.04;1.91;;;;;;;18.56;54.11;100484.25;;;;-57
2021/11/22 04:58:17;;;;;;;2.31;1.86;;;;;;;18.55;54.11;100483.66;;;;-52
2021/11/22 05:01:17;;;;;;;2.20;2.00;;;;;;;18.53;54.10;100483.66;;;;-52
2021/11/22 05:04:17;;;;;;;1.89;1.69;;;;;;;18.54;54.12;100485.05;;;;-57
2021/11/22 05:07:17;;;;;;;2.19;1.99;;;;;;;18.54;54.09;100485.53;;;;-53
2021/11/22 05:10:18;;;;;;;2.00;1.80;;;;;;;18.53;54.12;100480.96;;;;-52
2021/11/22 05:13:17;;;;;;;1.97;1.78;;;;;;;18.53;54.09;100489.16;;;;-53
2021/11/22 05:16:17;;;;;;;1.92;1.82;;;;;;;18.52;54.08;100490.78;;;;-57
2021/11/22 05:19:17;;;;;;;2.12;1.92;;;;;;;18.51;54.08;100491.36;;;;-56
2021/11/22 05:22:21;;;;;;;1.85;1.75;;;;;;;18.51;54.08;100497.33;;;;-52
2021/11/22 05:25:17;;;;;;;1.83;1.73;;;;;;;18.49;54.09;100496.94;;;;-53
2021/11/22 05:28:18;;;;;;;2.11;1.90;;;;;;;18.50;54.12;100500.50;;;;-57
2021/11/22 05:31:17;;;;;;;2.05;1.90;;;;;;;18.49;54.10;100500.63;;;;-57
2021/11/22 05:34:18;;;;;;;1.91;1.75;;;;;;;18.48;54.13;100504.61;;;;-52
2021/11/22 05:37:17;;;;;;;2.18;1.71;;;;;;;18.47;54.17;100506.97;;;;-56
2021/11/22 05:40:17;;;;;;;1.89;1.77;;;;;;;18.47;54.15;100509.56;;;;-52
2021/11/22 05:43:17;;;;;;;2.07;1.83;;;;;;;18.46;54.15;100515.79;;;;-52
2021/11/22 05:46:17;;;;;;;2.22;2.02;;;;;;;18.46;54.08;100520.42;;;;-54
2021/11/22 05:49:17;;;;;;;2.06;1.86;;;;;;;18.45;54.16;100524.96;;;;-54
2021/11/22 05:52:18;;;;;;;2.56;1.84;;;;;;;18.45;54.13;100526.23;;;;-56
2021/11/22 05:55:23;;;;;;;2.44;1.91;;;;;;;18.44;54.14;100532.89;;;;-57
2021/11/22 05:58:17;;;;;;;6.84;4.06;;;;;;;18.36;52.09;100537.09;;;;-54
2021/11/22 06:01:17;;;;;;;6.23;4.41;;;;;;;18.24;52.41;100539.56;;;;-58
2021/11/22 06:04:17;;;;;;;6.67;4.69;;;;;;;18.20;52.15;100546.23;;;;-56
2021/11/22 06:07:17;;;;;;;7.32;5.17;;;;;;;18.17;52.03;100549.83;;;;-56
2021/11/22 06:10:17;;;;;;;7.80;4.67;;;;;;;18.17;52.13;100554.53;;;;-54
2021/11/22 06:13:17;;;;;;;5.61;4.32;;;;;;;18.20;52.67;100561.81;;;;-54
2021/11/22 06:16:17;;;;;;;6.31;4.24;;;;;;;18.22;52.86;100562.89;;;;-54
2021/11/22 06:19:17;;;;;;;6.86;3.84;;;;;;;18.23;52.96;100570.84;;;;-54
2021/11/22 06:22:17;;;;;;;4.57;3.70;;;;;;;18.25;53.01;100576.47;;;;-54
2021/11/22 06:25:17;;;;;;;4.45;3.31;;;;;;;18.26;53.07;100578.41;;;;-54
2021/11/22 06:28:19;;;;;;;4.19;3.18;;;;;;;18.26;53.19;100582.87;;;;-54
2021/11/22 06:31:17;;;;;;;5.89;3.09;;;;;;;18.26;53.23;100582.25;;;;-56
2021/11/22 06:34:17;;;;;;;4.13;3.09;;;;;;;18.28;53.28;100593.69;;;;-52
2021/11/22 06:37:17;;;;;;;4.65;3.03;;;;;;;18.28;53.34;100600.83;;;;-54
2021/11/22 06:40:17;;;;;;;3.49;2.72;;;;;;;18.28;53.44;100607.35;;;;-54
2021/11/22 06:43:17;;;;;;;3.47;2.70;;;;;;;18.28;53.44;100607.27;;;;-53
2021/11/22 06:46:17;;;;;;;4.43;2.90;;;;;;;18.29;53.47;100609.63;;;;-57
2021/11/22 06:49:18;;;;;;;3.47;2.70;;;;;;;18.30;53.48;100614.41;;;;-56
2021/11/22 06:52:18;;;;;;;3.47;2.69;;;;;;;18.29;53.49;100620.33;;;;-57
2021/11/22 06:55:18;;;;;;;4.28;2.52;;;;;;;18.29;53.55;100627.14;;;;-52
2021/11/22 06:58:17;;;;;;;3.12;2.64;;;;;;;18.28;53.51;100629.17;;;;-57
2021/11/22 07:01:17;;;;;;;3.19;2.63;;;;;;;18.28;53.58;100636.06;;;;-58
2021/11/22 07:04:17;;;;;;;3.07;2.70;;;;;;;18.29;53.59;100642.23;;;;-54
2021/11/22 07:07:17;;;;;;;3.69;2.56;;;;;;;18.28;53.60;100648.40;;;;-53
2021/11/22 07:10:17;;;;;;;3.06;2.40;;;;;;;18.28;53.61;100649.50;;;;-57
2021/11/22 07:13:17;;;;;;;3.01;2.39;;;;;;;18.28;53.63;100656.34;;;;-54
2021/11/22 07:16:17;;;;;;;2.61;2.41;;;;;;;18.27;53.59;100658.34;;;;-52
2021/11/22 07:19:17;;;;;;;3.33;2.49;;;;;;;18.27;53.60;100660.30;;;;-55
2021/11/22 07:22:17;;;;;;;3.07;2.51;;;;;;;18.27;53.60;100667.59;;;;-57
2021/11/22 07:25:17;;;;;;;3.29;2.65;;;;;;;18.26;53.61;100671.48;;;;-56
2021/11/22 07:28:17;;;;;;;3.21;2.57;;;;;;;18.26;53.66;100677.49;;;;-54
2021/11/22 07:31:17;;;;;;;2.83;2.38;;;;;;;18.27;53.60;100677.98;;;;-56
2021/11/22 07:34:17;;;;;;;2.53;2.33;;;;;;;18.26;53.63;100683.98;;;;-56
2021/11/22 07:37:17;;;;;;;2.76;2.40;;;;;;;18.26;53.62;100690.23;;;;-57
2021/11/22 07:40:20;;;;;;;2.63;2.35;;;;;;;18.25;53.66;100695.14;;;;-56
2021/11/22 07:43:17;;;;;;;2.48;2.28;;;;;;;18.26;53.68;100703.42;;;;-53
2021/11/22 07:46:17;;;;;;;2.74;2.39;;;;;;;18.25;53.67;100702.61;;;;-56
2021/11/22 07:49:17;;;;;;;2.58;2.38;;;;;;;18.25;53.66;100704.64;;;;-56
2021/11/22 07:52:18;;;;;;;2.74;2.34;;;;;;;18.24;53.68;100711.70;;;;-54
2021/11/22 07:55:17;;;;;;;2.90;2.30;;;;;;;18.24;53.68;100715.72;;;;-57
2021/11/22 07:58:17;;;;;;;2.67;2.19;;;;;;;18.23;53.62;100721.64;;;;-57
2021/11/22 08:01:17;;;;;;;3.15;2.59;;;;;;;18.23;53.64;100726.91;;;;-54
2021/11/22 08:04:17;;;;;;;2.70;2.24;;;;;;;18.22;53.71;100734.86;;;;-54
2021/11/22 08:07:18;;;;;;;2.49;2.28;;;;;;;18.23;53.70;100735.75;;;;-53
2021/11/22 08:10:27;;;;;;;2.42;2.22;;;;;;;18.22;53.68;100743.27;;;;-57
2021/11/22 08:13:17;;;;;;;2.63;2.26;;;;;;;18.22;53.70;100749.06;;;;-53
2021/11/22 08:16:17;;;;;;;2.89;2.21;;;;;;;18.21;53.64;100744.24;;;;-54
2021/11/22 08:19:17;;;;;;;2.33;2.13;;;;;;;18.22;53.68;100749.27;;;;-54
2021/11/22 08:22:17;;;;;;;2.49;2.29;;;;;;;18.20;53.70;100752.59;;;;-53
2021/11/22 08:25:17;;;;;;;2.43;2.23;;;;;;;18.21;53.66;100758.59;;;;-52
2021/11/22 08:28:17;;;;;;;2.31;2.08;;;;;;;18.20;53.68;100770.25;;;;-54
2021/11/22 08:31:17;;;;;;;2.23;2.02;;;;;;;18.19;53.67;100776.25;;;;-57
2021/11/22 08:34:17;;;;;;;2.47;2.23;;;;;;;18.19;53.71;100780.38;;;;-53
2021/11/22 08:37:17;;;;;;;2.90;2.09;;;;;;;18.19;53.70;100788.98;;;;-56
2021/11/22 08:40:17;;;;;;;2.34;1.90;;;;;;;18.19;53.68;100788.09;;;;-55
2021/11/22 08:43:17;;;;;;;2.21;2.01;;;;;;;18.18;53.68;100792.47;;;;-56
2021/11/22 08:46:17;;;;;;;2.65;2.04;;;;;;;18.17;53.70;100797.55;;;;-56
2021/11/22 08:49:17;;;;;;;2.79;2.12;;;;;;;18.17;53.72;100800.71;;;;-56
2021/11/22 08:52:17;;;;;;;2.26;2.06;;;;;;;18.17;53.69;100803.39;;;;-56
2021/11/22 08:55:18;;;;;;;2.21;2.01;;;;;;;18.16;53.71;100806.92;;;;-55
2021/11/22 08:58:17;;;;;;;2.21;2.01;;;;;;;18.16;53.74;100819.13;;;;-52
2021/11/22 09:01:17;;;;;;;2.68;2.11;;;;;;;18.16;53.74;100823.42;;;;-52
2021/11/22 09:04:17;;;;;;;2.13;1.93;;;;;;;18.15;53.72;100830.60;;;;-54
2021/11/22 09:07:17;;;;;;;2.66;2.12;;;;;;;18.15;53.69;100832.95;;;;-57
2021/11/22 09:10:17;;;;;;;2.17;1.97;;;;;;;18.15;53.75;100838.88;;;;-55
2021/11/22 09:13:17;;;;;;;2.25;1.99;;;;;;;18.14;53.76;100840.02;;;;-57
2021/11/22 09:16:17;;;;;;;2.33;1.85;;;;;;;18.14;53.72;100842.77;;;;-57
2021/11/22 09:19:17;;;;;;;2.10;1.90;;;;;;;18.14;53.76;100850.96;;;;-55
2021/11/22 09:22:17;;;;;;;2.03;1.83;;;;;;;18.13;53.77;100851.58;;;;-54
2021/11/22 09:25:17;;;;;;;3.45;1.97;;;;;;;18.13;53.78;100861.80;;;;-54
2021/11/22 09:28:17;;;;;;;2.19;1.99;;;;;;;18.14;53.75;100868.88;;;;-57
2021/11/22 09:31:17;;;;;;;2.29;2.00;;;;;;;18.13;53.74;100873.07;;;;-54
2021/11/22 09:34:17;;;;;;;4.30;2.14;;;;;;;18.13;53.88;100870.72;;;;-54
2021/11/22 09:37:17;;;;;;;5.28;2.09;;;;;;;18.15;53.93;100875.54;;;;-56
2021/11/22 09:40:17;;;;;;;3.93;2.02;;;;;;;18.17;54.00;100879.39;;;;-49
2021/11/22 09:43:17;;;;;;;4.29;2.33;;;;;;;18.20;54.20;100882.80;;;;-53
2021/11/22 09:46:17;;;;;;;2.61;1.87;;;;;;;18.24;54.41;100884.66;;;;-51
2021/11/22 09:49:17;;;;;;;4.16;2.04;;;;;;;18.29;54.58;100881.64;;;;-49
2021/11/22 09:52:17;;;;;;;4.90;1.96;;;;;;;18.35;54.78;100889.55;;;;-50
2021/11/22 09:55:17;;;;;;;3.11;1.99;;;;;;;18.41;54.90;100894.20;;;;-52
2021/11/22 09:58:17;;;;;;;5.14;1.99;;;;;;;18.47;54.98;100898.37;;;;-49
2021/11/22 10:01:17;;;;;;;3.36;1.80;;;;;;;18.53;54.85;100898.44;;;;-54
2021/11/22 10:04:18;;;;;;;2.11;1.79;;;;;;;18.58;55.09;100901.79;;;;-53
2021/11/22 10:07:19;;;;;;;2.23;1.97;;;;;;;18.63;55.06;100900.80;;;;-50
2021/11/22 10:10:17;;;;;;;2.22;1.71;;;;;;;18.66;54.79;100901.52;;;;-50
2021/11/22 10:13:17;;;;;;;3.08;1.95;;;;;;;18.69;55.01;100900.10;;;;-52
2021/11/22 10:16:17;;;;;;;2.19;1.75;;;;;;;18.73;54.73;100904.47;;;;-57
2021/11/22 10:19:16;;;;;;;2.73;1.87;;;;;;;18.78;55.13;100907.45;;;;-55
2021/11/22 10:22:17;;;;;;;3.11;1.89;;;;;;;18.83;54.91;100917.09;;;;-57
2021/11/22 10:25:17;;;;;;;2.22;1.77;;;;;;;18.87;54.97;100913.83;;;;-57
2021/11/22 10:28:17;;;;;;;2.98;1.79;;;;;;;18.92;55.06;100915.92;;;;-49
2021/11/22 10:31:17;;;;;;;3.43;1.71;;;;;;;18.97;54.92;100914.89;;;;-57
2021/11/22 10:34:17;;;;;;;3.71;1.75;;;;;;;19.02;54.44;100920.80;;;;-51
2021/11/22 10:37:17;;;;;;;2.38;1.87;;;;;;;19.05;54.63;100921.27;;;;-54
2021/11/22 10:40:17;;;;;;;1.89;1.63;;;;;;;19.10;54.68;100921.82;;;;-55
2021/11/22 10:43:17;;;;;;;2.58;1.76;;;;;;;19.15;54.86;100922.20;;;;-52
2021/11/22 10:46:17;;;;;;;4.31;1.75;;;;;;;19.19;54.73;100921.30;;;;-53
2021/11/22 10:49:17;;;;;;;2.56;1.60;;;;;;;19.24;54.51;100927.65;;;;-52
2021/11/22 10:52:25;;;;;;;1.96;1.61;;;;;;;19.28;54.69;100927.03;;;;-50
2021/11/22 10:55:17;;;;;;;2.31;1.53;;;;;;;19.35;54.74;100932.27;;;;-49
2021/11/22 10:58:17;;;;;;;2.24;1.63;;;;;;;19.37;54.71;100935.30;;;;-49
2021/11/22 11:01:17;;;;;;;2.87;1.49;;;;;;;19.40;54.57;100929.59;;;;-51
2021/11/22 11:04:17;;;;;;;2.13;1.50;;;;;;;19.44;54.51;100924.33;;;;-54
2021/11/22 11:07:17;;;;;;;2.51;1.51;;;;;;;19.46;54.56;100922.36;;;;-58
2021/11/22 11:10:16;;;;;;;2.06;1.55;;;;;;;19.51;54.73;100923.04;;;;-56
2021/11/22 11:13:17;;;;;;;2.61;1.59;;;;;;;19.51;54.60;100922.09;;;;-52
2021/11/22 11:16:17;;;;;;;2.22;1.53;;;;;;;19.53;54.40;100929.11;;;;-62
2021/11/22 11:19:17;;;;;;;2.31;1.59;;;;;;;19.57;54.55;100924.75;;;;-57
2021/11/22 11:22:16;;;;;;;3.42;1.91;;;;;;;19.59;54.59;100928.22;;;;-49
2021/11/22 11:25:16;;;;;;;2.91;1.60;;;;;;;19.61;54.42;100932.94;;;;-52
2021/11/22 11:28:17;;;;;;;2.83;1.55;;;;;;;19.66;54.59;100934.89;;;;-55
2021/11/22 11:31:17;;;;;;;6.20;1.65;;;;;;;19.69;54.64;100932.91;;;;-51
2021/11/22 11:34:16;;;;;;;2.51;1.51;;;;;;;19.74;54.57;100940.80;;;;-48
2021/11/22 11:37:18;;;;;;;1.95;1.50;;;;;;;19.78;54.56;100948.50;;;;-55
2021/11/22 11:40:16;;;;;;;3.23;1.63;;;;;;;19.77;54.00;100946.84;;;;-54
2021/11/22 11:43:17;;;;;;;1.47;1.32;;;;;;;19.76;53.93;100948.55;;;;-57
2021/11/22 11:47:16;;;;;;;1.58;1.47;;;;;;;19.74;53.80;100949.17;;;;-51
2021/11/22 11:50:16;;;;;;;1.74;1.40;;;;;;;19.72;53.71;100949.80;;;;-55
2021/11/22 11:53:17;;;;;;;3.17;1.45;;;;;;;19.72;53.67;100950.05;;;;-58
2021/11/22 11:56:16;;;;;;;3.33;1.40;;;;;;;19.71;53.65;100953.91;;;;-57
2021/11/22 11:59:18;;;;;;;1.59;1.49;;;;;;;19.70;53.63;100952.34;;;;-51
2021/11/22 12:02:17;;;;;;;1.40;1.30;;;;;;;19.69;53.61;100952.80;;;;-52
2021/11/22 12:05:17;;;;;;;1.68;1.43;;;;;;;19.68;53.57;100953.13;;;;-52
2021/11/22 12:08:16;;;;;;;2.41;1.53;;;;;;;19.68;53.50;100952.31;;;;-51
2021/11/22 12:11:16;;;;;;;1.79;1.46;;;;;;;19.67;53.48;100954.27;;;;-57
2021/11/22 12:14:16;;;;;;;1.47;1.37;;;;;;;19.67;53.47;100958.06;;;;-50
2021/11/22 12:17:16;;;;;;;1.44;1.34;;;;;;;19.65;53.51;100959.36;;;;-50
2021/11/22 12:20:17;;;;;;;1.96;1.50;;;;;;;19.66;53.48;100957.33;;;;-50
2021/11/22 12:25:17;;;;;;;2.59;1.50;;;;;;;19.64;53.35;100958.68;;;;-55
2021/11/22 12:28:16;;;;;;;1.47;1.37;;;;;;;19.64;53.43;100964.70;;;;-57
2021/11/22 12:31:16;;;;;;;1.65;1.40;;;;;;;19.63;53.33;100952.96;;;;-55
2021/11/22 12:34:16;;;;;;;1.50;1.40;;;;;;;19.63;53.38;100954.27;;;;-55
2021/11/22 12:37:16;;;;;;;1.91;1.40;;;;;;;19.63;53.33;100958.25;;;;-54
2021/11/22 12:40:17;;;;;;;1.42;1.30;;;;;;;19.62;53.28;100955.89;;;;-50
2021/11/22 12:43:17;;;;;;;2.21;1.38;;;;;;;19.62;53.31;100950.52;;;;-51
2021/11/22 12:46:18;;;;;;;1.50;1.40;;;;;;;19.62;53.33;100950.77;;;;-52
2021/11/22 12:49:16;;;;;;;1.56;1.46;;;;;;;19.62;53.36;100950.84;;;;-52
2021/11/22 12:52:17;;;;;;;1.40;1.30;;;;;;;19.63;53.28;100956.54;;;;-57
2021/11/22 12:55:17;;;;;;;1.53;1.37;;;;;;;19.62;53.33;100956.30;;;;-50
2021/11/22 12:58:16;;;;;;;1.39;1.29;;;;;;;19.62;53.34;100957.59;;;;-50
2021/11/22 13:01:16;;;;;;;1.40;1.30;;;;;;;19.63;53.20;100963.20;;;;-55
2021/11/22 13:04:16;;;;;;;1.38;1.28;;;;;;;19.63;53.31;100962.55;;;;-57
2021/11/22 13:07:16;;;;;;;1.53;1.43;;;;;;;19.63;53.31;100967.55;;;;-51
2021/11/22 13:10:16;;;;;;;1.40;1.30;;;;;;;19.63;53.20;100972.10;;;;-55
2021/11/22 13:13:27;;;;;;;1.55;1.45;;;;;;;19.63;53.22;100974.45;;;;-57
2021/11/22 13:16:17;;;;;;;1.48;1.38;;;;;;;19.64;53.20;100971.37;;;;-55
2021/11/22 13:19:16;;;;;;;1.43;1.33;;;;;;;19.64;53.18;100978.36;;;;-51
2021/11/22 13:22:16;;;;;;;2.30;1.41;;;;;;;19.66;53.60;100975.55;;;;-52
2021/11/22 13:25:16;;;;;;;2.05;1.42;;;;;;;19.68;53.82;100984.11;;;;-52
2021/11/22 13:28:17;;;;;;;2.54;1.27;;;;;;;19.70;53.75;100987.18;;;;-58
2021/11/22 13:31:16;;;;;;;1.65;1.30;;;;;;;19.72;53.85;100992.90;;;;-59
2021/11/22 13:34:18;;;;;;;2.36;1.27;;;;;;;19.73;53.86;100995.91;;;;-54
2021/11/22 13:37:16;;;;;;;1.49;1.39;;;;;;;19.76;53.99;100998.89;;;;-50
2021/11/22 13:40:16;;;;;;;2.45;1.39;;;;;;;19.77;53.89;101006.05;;;;-51
2021/11/22 13:43:17;;;;;;;1.45;1.35;;;;;;;19.80;53.86;101003.99;;;;-53
2021/11/22 13:46:16;;;;;;;1.86;1.38;;;;;;;19.81;53.83;101004.07;;;;-53
2021/11/22 13:49:17;;;;;;;2.20;1.47;;;;;;;19.83;53.81;101008.09;;;;-46
2021/11/22 13:52:17;;;;;;;1.31;1.22;;;;;;;19.86;53.79;101010.47;;;;-51
2021/11/22 13:55:16;;;;;;;2.38;1.30;;;;;;;19.88;53.99;101011.18;;;;-54
2021/11/22 13:58:16;;;;;;;1.27;1.17;;;;;;;19.91;53.89;101017.80;;;;-53
2021/11/22 14:01:16;;;;;;;1.64;1.41;;;;;;;19.93;54.01;101022.14;;;;-49
2021/11/22 14:04:16;;;;;;;1.58;1.30;;;;;;;19.93;53.80;101029.70;;;;-53
2021/11/22 14:07:19;;;;;;;1.34;1.24;;;;;;;19.94;53.91;101038.48;;;;-55
2021/11/22 14:10:16;;;;;;;1.30;1.20;;;;;;;19.95;53.81;101036.31;;;;-56
2021/11/22 14:13:16;;;;;;;3.05;1.26;;;;;;;19.97;53.97;101041.72;;;;-48
2021/11/22 14:16:17;;;;;;;1.43;1.33;;;;;;;19.99;53.92;101049.96;;;;-54
2021/11/22 14:19:16;;;;;;;1.50;1.38;;;;;;;20.00;53.90;101054.84;;;;-49
2021/11/22 14:22:16;;;;;;;2.03;1.33;;;;;;;19.99;53.74;101058.27;;;;-51
2021/11/22 14:25:16;;;;;;;1.39;1.23;;;;;;;20.00;53.73;101061.34;;;;-53
2021/11/22 14:28:16;;;;;;;1.77;1.30;;;;;;;20.00;53.65;101067.28;;;;-57
2021/11/22 14:31:16;;;;;;;1.41;1.31;;;;;;;20.00;53.70;101070.30;;;;-55
2021/11/22 14:34:16;;;;;;;1.43;1.30;;;;;;;20.00;53.49;101078.27;;;;-55
2021/11/22 14:37:16;;;;;;;1.41;1.30;;;;;;;20.00;53.56;101076.41;;;;-54
2021/11/22 14:40:16;;;;;;;1.70;1.39;;;;;;;20.01;53.61;101082.53;;;;-48
2021/11/22 14:43:17;;;;;;;2.27;1.40;;;;;;;20.01;53.46;101078.30;;;;-48
2021/11/22 14:46:17;;;;;;;1.37;1.27;;;;;;;20.01;53.76;101085.78;;;;-55
2021/11/22 14:49:17;;;;;;;1.30;1.20;;;;;;;20.02;53.53;101088.47;;;;-52
2021/11/22 14:52:17;;;;;;;2.95;1.35;;;;;;;20.01;53.26;101087.50;;;;-56
2021/11/22 14:55:16;;;;;;;1.21;1.11;;;;;;;20.00;53.33;101084.54;;;;-56
2021/11/22 14:58:16;;;;;;;1.31;1.20;;;;;;;19.98;53.17;101082.26;;;;-52
2021/11/22 15:01:17;;;;;;;2.01;1.40;;;;;;;19.94;52.44;101083.83;;;;-52
2021/11/22 15:04:16;;;;;;;3.28;1.55;;;;;;;19.96;52.77;101088.47;;;;-57
2021/11/22 15:07:17;;;;;;;1.52;1.30;;;;;;;19.96;53.01;101092.05;;;;-59
2021/11/22 15:10:16;;;;;;;1.47;1.30;;;;;;;19.98;53.11;101098.34;;;;-58
2021/11/22 15:13:16;;;;;;;2.57;1.39;;;;;;;19.99;53.22;101105.45;;;;-50
2021/11/22 15:16:17;;;;;;;1.59;1.18;;;;;;;20.00;53.27;101103.82;;;;-48
2021/11/22 15:19:16;;;;;;;2.93;1.31;;;;;;;20.00;53.35;101104.95;;;;-52
2021/11/22 15:22:17;;;;;;;3.42;1.26;;;;;;;20.01;53.34;101109.55;;;;-51
2021/11/22 15:25:17;;;;;;;1.32;1.22;;;;;;;20.02;53.29;101113.69;;;;-57
2021/11/22 15:28:18;;;;;;;1.30;1.20;;;;;;;20.02;53.42;101114.42;;;;-53
2021/11/22 15:31:17;;;;;;;2.55;1.33;;;;;;;20.04;53.32;101114.21;;;;-58
2021/11/22 15:34:17;;;;;;;2.26;1.39;;;;;;;20.05;53.39;101119.78;;;;-53
2021/11/22 15:37:16;;;;;;;2.89;1.29;;;;;;;20.06;53.39;101124.73;;;;-57
2021/11/22 15:40:17;;;;;;;3.81;1.29;;;;;;;20.06;53.43;101127.66;;;;-56
2021/11/22 15:43:18;;;;;;;1.86;1.20;;;;;;;20.07;53.50;101134.05;;;;-49
2021/11/22 15:46:17;;;;;;;1.26;1.11;;;;;;;20.08;53.50;101132.58;;;;-58
2021/11/22 15:49:16;;;;;;;1.30;1.20;;;;;;;20.09;53.49;101136.44;;;;-51
2021/11/22 15:52:17;;;;;;;1.40;1.26;;;;;;;20.09;53.53;101141.56;;;;-51
2021/11/22 15:55:16;;;;;;;9.77;1.73;;;;;;;20.10;53.35;101146.52;;;;-51
2021/11/22 15:58:18;;;;;;;1.67;1.20;;;;;;;20.11;53.48;101149.86;;;;-56
2021/11/22 16:01:22;;;;;;;1.40;1.30;;;;;;;20.12;53.48;101158.19;;;;-58
2021/11/22 16:04:16;;;;;;;1.42;1.27;;;;;;;20.12;53.45;101155.75;;;;-49
2021/11/22 16:07:17;;;;;;;1.51;1.10;;;;;;;20.12;53.49;101159.66;;;;-53
2021/11/22 16:10:16;;;;;;;2.07;1.35;;;;;;;20.13;53.57;101163.11;;;;-52
2021/11/22 16:13:17;;;;;;;1.30;1.20;;;;;;;20.13;53.47;101164.65;;;;-47
2021/11/22 16:16:17;;;;;;;1.30;1.19;;;;;;;20.14;53.48;101164.65;;;;-55
2021/11/22 16:19:16;;;;;;;1.30;1.20;;;;;;;20.15;53.35;101170.70;;;;-51
2021/11/22 16:22:17;;;;;;;1.87;1.18;;;;;;;20.15;53.46;101174.25;;;;-57
2021/11/22 16:25:17;;;;;;;1.17;1.07;;;;;;;20.15;53.50;101179.82;;;;-58
2021/11/22 16:28:16;;;;;;;2.33;1.10;;;;;;;20.16;53.59;101179.41;;;;-51
2021/11/22 16:31:17;;;;;;;1.21;1.09;;;;;;;20.16;53.46;101182.09;;;;-52
2021/11/22 16:34:18;;;;;;;1.71;1.33;;;;;;;20.16;53.51;101185.67;;;;-57
2021/11/22 16:37:16;;;;;;;1.77;1.11;;;;;;;20.16;53.42;101188.93;;;;-56
2021/11/22 16:40:17;;;;;;;1.50;1.07;;;;;;;20.17;53.49;101190.02;;;;-55
2021/11/22 16:43:16;;;;;;;1.33;1.20;;;;;;;20.17;53.55;101197.75;;;;-52
2021/11/22 16:46:17;;;;;;;3.91;1.29;;;;;;;20.13;52.33;101201.97;;;;-54